sensor_id;sensor_type;location;lat;lon;timestamp;pressure;altitude;pressure_sealevel;temperature;humidity
76553;BME280;65395;53.168;18.156;2023-09-18T00:01:03;101126.40;;;17.32;81.59
76553;BME280;65395;53.168;18.156;2023-09-18T00:03:40;101128.38;;;17.31;81.47
76553;BME280;65395;53.168;18.156;2023-09-18T00:06:07;101130.15;;;17.32;81.62
76553;BME280;65395;53.168;18.156;2023-09-18T00:08:35;101129.88;;;17.31;81.51
76553;BME280;65395;53.168;18.156;2023-09-18T00:11:02;101125.24;;;17.30;81.64
76553;BME280;65395;53.168;18.156;2023-09-18T00:13:29;101127.91;;;17.28;81.67
76553;BME280;65395;53.168;18.156;2023-09-18T00:15:56;101128.14;;;17.26;81.52
76553;BME280;65395;53.168;18.156;2023-09-18T00:18:26;101126.45;;;17.24;81.82
76553;BME280;65395;53.168;18.156;2023-09-18T00:20:53;101126.79;;;17.23;81.89
76553;BME280;65395;53.168;18.156;2023-09-18T00:23:20;101127.77;;;17.23;81.73
76553;BME280;65395;53.168;18.156;2023-09-18T00:25:47;101125.98;;;17.24;81.67
76553;BME280;65395;53.168;18.156;2023-09-18T00:28:14;101125.38;;;17.24;81.68
76553;BME280;65395;53.168;18.156;2023-09-18T00:30:47;101125.63;;;17.23;81.65
76553;BME280;65395;53.168;18.156;2023-09-18T00:33:16;101122.46;;;17.20;81.53
76553;BME280;65395;53.168;18.156;2023-09-18T00:35:47;101118.44;;;17.18;81.64
76553;BME280;65395;53.168;18.156;2023-09-18T00:38:14;101115.06;;;17.16;81.72
76553;BME280;65395;53.168;18.156;2023-09-18T00:40:41;101112.25;;;17.12;81.95
76553;BME280;65395;53.168;18.156;2023-09-18T00:43:08;101105.98;;;17.10;82.06
76553;BME280;65395;53.168;18.156;2023-09-18T00:45:42;101107.02;;;17.07;81.98
76553;BME280;65395;53.168;18.156;2023-09-18T00:48:11;101104.70;;;17.05;81.93
76553;BME280;65395;53.168;18.156;2023-09-18T00:50:38;101105.23;;;17.03;82.19
76553;BME280;65395;53.168;18.156;2023-09-18T00:53:07;101097.70;;;17.01;82.42
76553;BME280;65395;53.168;18.156;2023-09-18T00:55:37;101100.86;;;16.99;82.41
76553;BME280;65395;53.168;18.156;2023-09-18T00:58:06;101098.32;;;16.96;82.67
76553;BME280;65395;53.168;18.156;2023-09-18T01:00:33;101100.46;;;16.93;82.79
76553;BME280;65395;53.168;18.156;2023-09-18T01:03:01;101098.66;;;16.90;82.51
76553;BME280;65395;53.168;18.156;2023-09-18T01:05:33;101098.09;;;16.86;82.63
76553;BME280;65395;53.168;18.156;2023-09-18T01:08:00;101093.67;;;16.82;82.73
76553;BME280;65395;53.168;18.156;2023-09-18T01:10:33;101098.52;;;16.79;82.99
76553;BME280;65395;53.168;18.156;2023-09-18T01:13:08;101096.88;;;16.77;82.96
76553;BME280;65395;53.168;18.156;2023-09-18T01:15:44;101097.73;;;16.75;83.05
76553;BME280;65395;53.168;18.156;2023-09-18T01:18:14;101091.23;;;16.74;83.17
76553;BME280;65395;53.168;18.156;2023-09-18T01:20:44;101092.09;;;16.73;83.04
76553;BME280;65395;53.168;18.156;2023-09-18T01:23:11;101090.21;;;16.72;83.31
76553;BME280;65395;53.168;18.156;2023-09-18T01:25:38;101092.39;;;16.73;83.27
76553;BME280;65395;53.168;18.156;2023-09-18T01:28:05;101094.64;;;16.72;83.16
76553;BME280;65395;53.168;18.156;2023-09-18T01:30:32;101092.98;;;16.71;83.11
76553;BME280;65395;53.168;18.156;2023-09-18T01:33:02;101094.04;;;16.69;83.48
76553;BME280;65395;53.168;18.156;2023-09-18T01:35:31;101093.89;;;16.67;83.39
76553;BME280;65395;53.168;18.156;2023-09-18T01:38:00;101089.88;;;16.66;83.54
76553;BME280;65395;53.168;18.156;2023-09-18T01:40:28;101093.92;;;16.65;83.51
76553;BME280;65395;53.168;18.156;2023-09-18T01:42:55;101095.96;;;16.62;83.51
76553;BME280;65395;53.168;18.156;2023-09-18T01:45:22;101099.83;;;16.61;83.66
76553;BME280;65395;53.168;18.156;2023-09-18T01:47:49;101098.71;;;16.60;83.67
76553;BME280;65395;53.168;18.156;2023-09-18T01:50:16;101098.55;;;16.58;83.83
76553;BME280;65395;53.168;18.156;2023-09-18T01:52:43;101096.20;;;16.54;83.80
76553;BME280;65395;53.168;18.156;2023-09-18T01:55:10;101094.04;;;16.52;83.86
76553;BME280;65395;53.168;18.156;2023-09-18T01:57:37;101091.52;;;16.49;83.71
76553;BME280;65395;53.168;18.156;2023-09-18T02:00:05;101092.80;;;16.47;83.91
76553;BME280;65395;53.168;18.156;2023-09-18T02:02:39;101093.11;;;16.45;83.90
76553;BME280;65395;53.168;18.156;2023-09-18T02:05:06;101090.54;;;16.46;83.80
76553;BME280;65395;53.168;18.156;2023-09-18T02:07:33;101082.93;;;16.44;83.88
76553;BME280;65395;53.168;18.156;2023-09-18T02:10:00;101083.34;;;16.43;83.88
76553;BME280;65395;53.168;18.156;2023-09-18T02:12:27;101080.73;;;16.39;83.77
76553;BME280;65395;53.168;18.156;2023-09-18T02:14:54;101080.05;;;16.36;83.63
76553;BME280;65395;53.168;18.156;2023-09-18T02:17:24;101079.92;;;16.31;83.57
76553;BME280;65395;53.168;18.156;2023-09-18T02:19:51;101080.11;;;16.27;83.21
76553;BME280;65395;53.168;18.156;2023-09-18T02:22:18;101078.09;;;16.21;83.24
76553;BME280;65395;53.168;18.156;2023-09-18T02:24:45;101074.55;;;16.17;83.41
76553;BME280;65395;53.168;18.156;2023-09-18T02:27:11;101070.23;;;16.14;83.60
76553;BME280;65395;53.168;18.156;2023-09-18T02:29:38;101065.50;;;16.08;83.37
76553;BME280;65395;53.168;18.156;2023-09-18T02:32:05;101071.20;;;16.10;83.55
76553;BME280;65395;53.168;18.156;2023-09-18T02:34:32;101070.16;;;16.07;83.57
76553;BME280;65395;53.168;18.156;2023-09-18T02:37:00;101070.36;;;16.03;83.42
76553;BME280;65395;53.168;18.156;2023-09-18T02:39:27;101065.89;;;15.98;83.59
76553;BME280;65395;53.168;18.156;2023-09-18T02:41:54;101063.14;;;15.94;83.61
76553;BME280;65395;53.168;18.156;2023-09-18T02:44:21;101059.75;;;15.90;83.64
76553;BME280;65395;53.168;18.156;2023-09-18T02:46:48;101061.34;;;15.87;83.82
76553;BME280;65395;53.168;18.156;2023-09-18T02:49:15;101060.83;;;15.82;84.04
76553;BME280;65395;53.168;18.156;2023-09-18T02:51:42;101059.76;;;15.81;84.23
76553;BME280;65395;53.168;18.156;2023-09-18T02:54:09;101063.08;;;15.80;84.40
76553;BME280;65395;53.168;18.156;2023-09-18T02:56:36;101062.39;;;15.80;84.79
76553;BME280;65395;53.168;18.156;2023-09-18T02:59:04;101061.48;;;15.82;85.13
76553;BME280;65395;53.168;18.156;2023-09-18T03:01:31;101060.42;;;15.83;85.23
76553;BME280;65395;53.168;18.156;2023-09-18T03:03:58;101059.79;;;15.83;85.26
76553;BME280;65395;53.168;18.156;2023-09-18T03:06:25;101058.27;;;15.85;85.28
76553;BME280;65395;53.168;18.156;2023-09-18T03:08:52;101056.86;;;15.87;85.34
76553;BME280;65395;53.168;18.156;2023-09-18T03:11:19;101059.13;;;15.88;85.45
76553;BME280;65395;53.168;18.156;2023-09-18T03:13:47;101055.39;;;15.86;85.25
76553;BME280;65395;53.168;18.156;2023-09-18T03:16:14;101054.27;;;15.83;85.23
76553;BME280;65395;53.168;18.156;2023-09-18T03:18:41;101048.94;;;15.78;85.34
76553;BME280;65395;53.168;18.156;2023-09-18T03:21:08;101048.84;;;15.79;85.26
76553;BME280;65395;53.168;18.156;2023-09-18T03:23:35;101039.77;;;15.74;85.27
76553;BME280;65395;53.168;18.156;2023-09-18T03:26:03;101045.13;;;15.73;85.08
76553;BME280;65395;53.168;18.156;2023-09-18T03:28:30;101043.41;;;15.71;85.12
76553;BME280;65395;53.168;18.156;2023-09-18T03:30:58;101042.15;;;15.66;84.88
76553;BME280;65395;53.168;18.156;2023-09-18T03:33:25;101032.23;;;15.62;85.05
76553;BME280;65395;53.168;18.156;2023-09-18T03:35:53;101029.38;;;15.59;85.05
76553;BME280;65395;53.168;18.156;2023-09-18T03:38:26;101020.92;;;15.56;85.22
76553;BME280;65395;53.168;18.156;2023-09-18T03:40:53;101019.27;;;15.55;85.28
76553;BME280;65395;53.168;18.156;2023-09-18T03:43:20;101019.19;;;15.53;85.32
76553;BME280;65395;53.168;18.156;2023-09-18T03:45:47;101010.48;;;15.51;85.35
76553;BME280;65395;53.168;18.156;2023-09-18T03:48:15;101013.34;;;15.50;85.36
76553;BME280;65395;53.168;18.156;2023-09-18T03:50:42;101009.21;;;15.47;85.15
76553;BME280;65395;53.168;18.156;2023-09-18T03:53:10;101006.36;;;15.45;85.05
76553;BME280;65395;53.168;18.156;2023-09-18T03:55:37;101000.14;;;15.42;84.92
76553;BME280;65395;53.168;18.156;2023-09-18T03:58:04;101000.38;;;15.39;84.94
76553;BME280;65395;53.168;18.156;2023-09-18T04:00:32;100996.98;;;15.35;84.81
76553;BME280;65395;53.168;18.156;2023-09-18T04:02:59;100999.48;;;15.31;84.63
76553;BME280;65395;53.168;18.156;2023-09-18T04:05:26;100995.67;;;15.26;84.59
76553;BME280;65395;53.168;18.156;2023-09-18T04:07:53;100991.69;;;15.23;84.69
76553;BME280;65395;53.168;18.156;2023-09-18T04:10:20;100988.87;;;15.19;84.64
76553;BME280;65395;53.168;18.156;2023-09-18T04:12:50;100982.77;;;15.15;84.55
76553;BME280;65395;53.168;18.156;2023-09-18T04:15:20;100986.80;;;15.11;84.43
76553;BME280;65395;53.168;18.156;2023-09-18T04:17:48;100986.50;;;15.07;84.11
76553;BME280;65395;53.168;18.156;2023-09-18T04:20:15;100981.75;;;15.01;84.17
76553;BME280;65395;53.168;18.156;2023-09-18T04:22:44;100974.42;;;14.95;84.20
76553;BME280;65395;53.168;18.156;2023-09-18T04:25:12;100974.65;;;14.91;84.09
76553;BME280;65395;53.168;18.156;2023-09-18T04:27:39;100974.66;;;14.86;84.51
76553;BME280;65395;53.168;18.156;2023-09-18T04:30:07;100971.73;;;14.83;84.26
76553;BME280;65395;53.168;18.156;2023-09-18T04:32:36;100968.55;;;14.79;84.56
76553;BME280;65395;53.168;18.156;2023-09-18T04:35:04;100972.23;;;14.77;84.37
76553;BME280;65395;53.168;18.156;2023-09-18T04:37:36;100968.08;;;14.76;84.13
76553;BME280;65395;53.168;18.156;2023-09-18T04:40:05;100965.58;;;14.74;84.26
76553;BME280;65395;53.168;18.156;2023-09-18T04:42:37;100959.73;;;14.73;84.29
76553;BME280;65395;53.168;18.156;2023-09-18T04:45:05;100955.70;;;14.71;84.25
76553;BME280;65395;53.168;18.156;2023-09-18T04:47:32;100954.71;;;14.69;84.08
76553;BME280;65395;53.168;18.156;2023-09-18T04:49:59;100958.20;;;14.68;84.22
76553;BME280;65395;53.168;18.156;2023-09-18T04:52:27;100962.67;;;14.68;84.50
76553;BME280;65395;53.168;18.156;2023-09-18T04:54:54;100965.73;;;14.68;84.92
76553;BME280;65395;53.168;18.156;2023-09-18T04:57:21;100963.81;;;14.71;85.06
76553;BME280;65395;53.168;18.156;2023-09-18T04:59:49;100964.20;;;14.76;85.55
76553;BME280;65395;53.168;18.156;2023-09-18T05:02:15;100970.91;;;14.81;85.43
76553;BME280;65395;53.168;18.156;2023-09-18T05:04:43;100969.80;;;14.86;85.69
76553;BME280;65395;53.168;18.156;2023-09-18T05:07:09;100968.70;;;14.91;85.23
76553;BME280;65395;53.168;18.156;2023-09-18T05:09:36;100966.38;;;14.92;84.88
76553;BME280;65395;53.168;18.156;2023-09-18T05:12:05;100975.31;;;15.00;84.70
76553;BME280;65395;53.168;18.156;2023-09-18T05:14:35;100973.21;;;15.05;84.56
76553;BME280;65395;53.168;18.156;2023-09-18T05:17:02;100969.41;;;15.08;84.38
76553;BME280;65395;53.168;18.156;2023-09-18T05:19:29;100971.39;;;15.09;84.20
76553;BME280;65395;53.168;18.156;2023-09-18T05:21:56;100969.43;;;15.11;84.31
76553;BME280;65395;53.168;18.156;2023-09-18T05:24:22;100968.34;;;15.14;84.46
76553;BME280;65395;53.168;18.156;2023-09-18T05:26:53;100969.92;;;15.18;84.93
76553;BME280;65395;53.168;18.156;2023-09-18T05:29:20;100962.64;;;15.24;85.10
76553;BME280;65395;53.168;18.156;2023-09-18T05:31:47;100962.13;;;15.31;85.48
76553;BME280;65395;53.168;18.156;2023-09-18T05:34:14;100963.91;;;15.40;85.60
76553;BME280;65395;53.168;18.156;2023-09-18T05:36:41;100966.58;;;15.50;85.67
76553;BME280;65395;53.168;18.156;2023-09-18T05:39:08;100964.00;;;15.60;85.78
76553;BME280;65395;53.168;18.156;2023-09-18T05:41:38;100964.09;;;15.71;85.60
76553;BME280;65395;53.168;18.156;2023-09-18T05:44:05;100964.25;;;15.82;85.75
76553;BME280;65395;53.168;18.156;2023-09-18T05:46:34;100961.53;;;15.92;85.63
76553;BME280;65395;53.168;18.156;2023-09-18T05:49:02;100955.23;;;16.03;85.50
76553;BME280;65395;53.168;18.156;2023-09-18T05:51:30;100956.05;;;16.15;85.50
76553;BME280;65395;53.168;18.156;2023-09-18T05:53:59;100953.92;;;16.22;85.40
76553;BME280;65395;53.168;18.156;2023-09-18T05:56:26;100952.59;;;16.26;85.36
76553;BME280;65395;53.168;18.156;2023-09-18T05:58:53;100948.77;;;16.31;85.28
76553;BME280;65395;53.168;18.156;2023-09-18T06:01:22;100942.09;;;16.38;85.26
76553;BME280;65395;53.168;18.156;2023-09-18T06:03:49;100942.99;;;16.47;85.21
76553;BME280;65395;53.168;18.156;2023-09-18T06:06:16;100941.90;;;16.54;85.12
76553;BME280;65395;53.168;18.156;2023-09-18T06:08:42;100947.20;;;16.63;84.88
76553;BME280;65395;53.168;18.156;2023-09-18T06:11:10;100949.40;;;16.72;84.63
76553;BME280;65395;53.168;18.156;2023-09-18T06:13:37;100946.65;;;16.81;84.45
76553;BME280;65395;53.168;18.156;2023-09-18T06:16:05;100944.73;;;16.90;84.38
76553;BME280;65395;53.168;18.156;2023-09-18T06:18:34;100944.07;;;16.98;84.13
76553;BME280;65395;53.168;18.156;2023-09-18T06:21:04;100942.32;;;17.04;84.12
76553;BME280;65395;53.168;18.156;2023-09-18T06:23:31;100942.29;;;17.09;84.13
76553;BME280;65395;53.168;18.156;2023-09-18T06:25:59;100939.30;;;17.13;83.96
76553;BME280;65395;53.168;18.156;2023-09-18T06:28:27;100938.52;;;17.19;83.62
76553;BME280;65395;53.168;18.156;2023-09-18T06:30:54;100930.77;;;17.25;83.62
76553;BME280;65395;53.168;18.156;2023-09-18T06:33:21;100930.64;;;17.32;83.54
76553;BME280;65395;53.168;18.156;2023-09-18T06:35:48;100929.54;;;17.39;83.47
76553;BME280;65395;53.168;18.156;2023-09-18T06:38:15;100929.58;;;17.45;83.19
76553;BME280;65395;53.168;18.156;2023-09-18T06:40:42;100929.34;;;17.55;83.22
76553;BME280;65395;53.168;18.156;2023-09-18T06:43:08;100930.37;;;17.64;82.95
76553;BME280;65395;53.168;18.156;2023-09-18T06:45:35;100925.52;;;17.73;82.89
76553;BME280;65395;53.168;18.156;2023-09-18T06:48:05;100929.50;;;17.79;82.47
76553;BME280;65395;53.168;18.156;2023-09-18T06:50:31;100931.74;;;17.85;82.48
76553;BME280;65395;53.168;18.156;2023-09-18T06:53:00;100928.44;;;17.90;82.48
76553;BME280;65395;53.168;18.156;2023-09-18T06:55:28;100924.95;;;17.97;82.22
76553;BME280;65395;53.168;18.156;2023-09-18T06:57:55;100923.61;;;18.04;81.89
76553;BME280;65395;53.168;18.156;2023-09-18T07:00:22;100918.44;;;18.11;81.67
76553;BME280;65395;53.168;18.156;2023-09-18T07:02:49;100917.17;;;18.17;81.35
76553;BME280;65395;53.168;18.156;2023-09-18T07:05:16;100913.71;;;18.22;81.21
76553;BME280;65395;53.168;18.156;2023-09-18T07:07:43;100912.17;;;18.28;81.07
76553;BME280;65395;53.168;18.156;2023-09-18T07:10:10;100910.58;;;18.33;80.82
76553;BME280;65395;53.168;18.156;2023-09-18T07:12:37;100910.19;;;18.40;80.76
76553;BME280;65395;53.168;18.156;2023-09-18T07:15:04;100905.09;;;18.46;80.57
76553;BME280;65395;53.168;18.156;2023-09-18T07:17:32;100900.74;;;18.53;80.20
76553;BME280;65395;53.168;18.156;2023-09-18T07:19:59;100901.85;;;18.61;80.41
76553;BME280;65395;53.168;18.156;2023-09-18T07:22:26;100904.63;;;18.68;80.10
76553;BME280;65395;53.168;18.156;2023-09-18T07:24:53;100905.00;;;18.78;80.05
76553;BME280;65395;53.168;18.156;2023-09-18T07:27:20;100900.34;;;18.87;79.80
76553;BME280;65395;53.168;18.156;2023-09-18T07:29:47;100901.83;;;18.95;79.21
76553;BME280;65395;53.168;18.156;2023-09-18T07:32:14;100898.64;;;19.03;79.05
76553;BME280;65395;53.168;18.156;2023-09-18T07:34:41;100895.85;;;19.12;78.72
76553;BME280;65395;53.168;18.156;2023-09-18T07:37:08;100898.11;;;19.19;78.61
76553;BME280;65395;53.168;18.156;2023-09-18T07:39:35;100899.96;;;19.27;78.31
76553;BME280;65395;53.168;18.156;2023-09-18T07:42:03;100897.88;;;19.34;78.33
76553;BME280;65395;53.168;18.156;2023-09-18T07:44:30;100895.57;;;19.42;78.03
76553;BME280;65395;53.168;18.156;2023-09-18T07:46:57;100895.81;;;19.53;77.87
76553;BME280;65395;53.168;18.156;2023-09-18T07:49:24;100895.89;;;19.64;77.62
76553;BME280;65395;53.168;18.156;2023-09-18T07:51:51;100895.13;;;19.75;77.46
76553;BME280;65395;53.168;18.156;2023-09-18T07:54:18;100894.23;;;19.87;76.93
76553;BME280;65395;53.168;18.156;2023-09-18T07:56:45;100889.94;;;19.97;77.60
76553;BME280;65395;53.168;18.156;2023-09-18T07:59:13;100893.84;;;20.06;76.65
76553;BME280;65395;53.168;18.156;2023-09-18T08:01:41;100894.12;;;20.14;76.35
76553;BME280;65395;53.168;18.156;2023-09-18T08:04:08;100897.98;;;20.23;76.20
76553;BME280;65395;53.168;18.156;2023-09-18T08:06:35;100900.04;;;20.31;76.07
76553;BME280;65395;53.168;18.156;2023-09-18T08:09:02;100896.90;;;20.40;75.74
76553;BME280;65395;53.168;18.156;2023-09-18T08:11:30;100891.46;;;20.48;75.57
76553;BME280;65395;53.168;18.156;2023-09-18T08:13:57;100886.47;;;20.58;75.06
76553;BME280;65395;53.168;18.156;2023-09-18T08:16:24;100886.48;;;20.67;74.62
76553;BME280;65395;53.168;18.156;2023-09-18T08:18:51;100884.30;;;20.76;74.59
76553;BME280;65395;53.168;18.156;2023-09-18T08:21:19;100877.73;;;20.86;74.48
76553;BME280;65395;53.168;18.156;2023-09-18T08:23:46;100874.47;;;20.94;74.08
76553;BME280;65395;53.168;18.156;2023-09-18T08:26:13;100873.44;;;21.02;73.81
76553;BME280;65395;53.168;18.156;2023-09-18T08:28:40;100873.04;;;21.11;73.61
76553;BME280;65395;53.168;18.156;2023-09-18T08:31:10;100871.42;;;21.21;73.46
76553;BME280;65395;53.168;18.156;2023-09-18T08:33:37;100872.75;;;21.29;73.24
76553;BME280;65395;53.168;18.156;2023-09-18T08:36:04;100867.69;;;21.36;72.87
76553;BME280;65395;53.168;18.156;2023-09-18T08:38:31;100862.88;;;21.44;72.49
76553;BME280;65395;53.168;18.156;2023-09-18T08:40:58;100860.14;;;21.53;72.30
76553;BME280;65395;53.168;18.156;2023-09-18T08:43:26;100858.66;;;21.63;72.05
76553;BME280;65395;53.168;18.156;2023-09-18T08:45:54;100858.77;;;21.73;71.62
76553;BME280;65395;53.168;18.156;2023-09-18T08:48:22;100849.55;;;21.83;70.87
76553;BME280;65395;53.168;18.156;2023-09-18T08:50:49;100846.98;;;21.93;70.89
76553;BME280;65395;53.168;18.156;2023-09-18T08:53:18;100840.60;;;22.04;70.25
76553;BME280;65395;53.168;18.156;2023-09-18T08:55:45;100830.63;;;22.17;70.29
76553;BME280;65395;53.168;18.156;2023-09-18T08:58:11;100828.48;;;22.28;69.89
76553;BME280;65395;53.168;18.156;2023-09-18T09:00:38;100823.21;;;22.38;69.58
76553;BME280;65395;53.168;18.156;2023-09-18T09:03:06;100815.39;;;22.48;69.11
76553;BME280;65395;53.168;18.156;2023-09-18T09:05:33;100809.25;;;22.57;68.99
76553;BME280;65395;53.168;18.156;2023-09-18T09:08:00;100808.33;;;22.66;68.33
76553;BME280;65395;53.168;18.156;2023-09-18T09:10:28;100808.10;;;22.77;68.19
76553;BME280;65395;53.168;18.156;2023-09-18T09:12:57;100803.86;;;22.87;68.08
76553;BME280;65395;53.168;18.156;2023-09-18T09:15:28;100800.70;;;22.97;67.94
76553;BME280;65395;53.168;18.156;2023-09-18T09:18:04;100799.61;;;23.08;67.34
76553;BME280;65395;53.168;18.156;2023-09-18T09:20:32;100796.52;;;23.20;66.76
76553;BME280;65395;53.168;18.156;2023-09-18T09:23:03;100793.90;;;23.30;66.78
76553;BME280;65395;53.168;18.156;2023-09-18T09:25:32;100786.35;;;23.42;65.83
76553;BME280;65395;53.168;18.156;2023-09-18T09:28:01;100787.24;;;23.53;65.49
76553;BME280;65395;53.168;18.156;2023-09-18T09:30:31;100778.05;;;23.63;65.18
76553;BME280;65395;53.168;18.156;2023-09-18T09:32:59;100780.40;;;23.75;64.87
76553;BME280;65395;53.168;18.156;2023-09-18T09:35:30;100776.66;;;23.88;64.30
76553;BME280;65395;53.168;18.156;2023-09-18T09:38:06;100775.62;;;23.98;63.74
76553;BME280;65395;53.168;18.156;2023-09-18T09:40:34;100773.29;;;24.10;63.33
76553;BME280;65395;53.168;18.156;2023-09-18T09:43:02;100766.82;;;24.20;62.84
76553;BME280;65395;53.168;18.156;2023-09-18T09:45:31;100757.44;;;24.32;62.75
76553;BME280;65395;53.168;18.156;2023-09-18T09:48:04;100750.96;;;24.42;62.83
76553;BME280;65395;53.168;18.156;2023-09-18T09:50:33;100743.80;;;24.54;62.45
76553;BME280;65395;53.168;18.156;2023-09-18T09:53:00;100736.98;;;24.64;61.85
76553;BME280;65395;53.168;18.156;2023-09-18T09:55:30;100732.36;;;24.74;61.11
76553;BME280;65395;53.168;18.156;2023-09-18T09:58:00;100732.11;;;24.82;60.84
76553;BME280;65395;53.168;18.156;2023-09-18T10:00:32;100731.92;;;24.92;60.60
76553;BME280;65395;53.168;18.156;2023-09-18T10:03:08;100732.36;;;25.03;59.66
76553;BME280;65395;53.168;18.156;2023-09-18T10:05:38;100727.13;;;25.12;59.72
76553;BME280;65395;53.168;18.156;2023-09-18T10:08:10;100724.48;;;25.21;59.38
76553;BME280;65395;53.168;18.156;2023-09-18T10:10:43;100717.02;;;25.30;58.82
76553;BME280;65395;53.168;18.156;2023-09-18T10:13:16;100717.45;;;25.43;58.25
76553;BME280;65395;53.168;18.156;2023-09-18T10:15:45;100711.06;;;25.54;57.68
76553;BME280;65395;53.168;18.156;2023-09-18T10:18:19;100714.17;;;25.63;57.93
76553;BME280;65395;53.168;18.156;2023-09-18T10:20:56;100712.23;;;25.74;56.92
76553;BME280;65395;53.168;18.156;2023-09-18T10:23:38;100704.38;;;25.84;55.48
76553;BME280;65395;53.168;18.156;2023-09-18T10:26:09;100709.53;;;25.90;54.76
76553;BME280;65395;53.168;18.156;2023-09-18T10:28:37;100701.98;;;25.97;54.72
76553;BME280;65395;53.168;18.156;2023-09-18T10:31:04;100698.80;;;26.03;54.90
76553;BME280;65395;53.168;18.156;2023-09-18T10:33:33;100691.41;;;26.13;54.85
76553;BME280;65395;53.168;18.156;2023-09-18T10:36:01;100688.38;;;26.24;53.97
76553;BME280;65395;53.168;18.156;2023-09-18T10:38:30;100687.56;;;26.38;52.95
76553;BME280;65395;53.168;18.156;2023-09-18T10:40:59;100684.94;;;26.46;52.02
76553;BME280;65395;53.168;18.156;2023-09-18T10:43:27;100685.98;;;26.55;52.59
76553;BME280;65395;53.168;18.156;2023-09-18T10:45:54;100684.23;;;26.64;52.00
76553;BME280;65395;53.168;18.156;2023-09-18T10:48:22;100681.82;;;26.74;51.45
76553;BME280;65395;53.168;18.156;2023-09-18T10:50:50;100679.40;;;26.82;51.39
76553;BME280;65395;53.168;18.156;2023-09-18T10:53:19;100674.42;;;26.89;51.33
76553;BME280;65395;53.168;18.156;2023-09-18T10:55:48;100668.26;;;26.86;50.32
76553;BME280;65395;53.168;18.156;2023-09-18T10:58:23;100667.23;;;26.89;50.01
76553;BME280;65395;53.168;18.156;2023-09-18T11:00:51;100671.74;;;26.98;50.50
76553;BME280;65395;53.168;18.156;2023-09-18T11:03:18;100674.64;;;27.06;50.19
76553;BME280;65395;53.168;18.156;2023-09-18T11:05:47;100669.59;;;27.11;50.10
76553;BME280;65395;53.168;18.156;2023-09-18T11:08:24;100656.50;;;27.15;49.95
76553;BME280;65395;53.168;18.156;2023-09-18T11:11:02;100661.66;;;27.15;49.34
76553;BME280;65395;53.168;18.156;2023-09-18T11:13:39;100659.36;;;27.15;49.54
76553;BME280;65395;53.168;18.156;2023-09-18T11:16:35;100658.55;;;27.19;49.53
76553;BME280;65395;53.168;18.156;2023-09-18T11:19:09;100658.02;;;27.31;48.79
76553;BME280;65395;53.168;18.156;2023-09-18T11:21:37;100657.67;;;27.37;49.03
76553;BME280;65395;53.168;18.156;2023-09-18T11:24:06;100654.53;;;27.44;48.37
76553;BME280;65395;53.168;18.156;2023-09-18T11:26:40;100657.90;;;27.50;48.25
76553;BME280;65395;53.168;18.156;2023-09-18T11:29:10;100651.95;;;27.57;48.17
76553;BME280;65395;53.168;18.156;2023-09-18T11:31:46;100646.48;;;27.63;47.74
76553;BME280;65395;53.168;18.156;2023-09-18T11:34:20;100639.27;;;27.66;47.69
76553;BME280;65395;53.168;18.156;2023-09-18T11:36:49;100641.71;;;27.70;46.73
76553;BME280;65395;53.168;18.156;2023-09-18T11:42:13;100640.00;;;27.78;46.88
76553;BME280;65395;53.168;18.156;2023-09-18T11:44:42;100632.77;;;27.81;46.13
76553;BME280;65395;53.168;18.156;2023-09-18T11:47:18;100625.70;;;27.85;46.20
76553;BME280;65395;53.168;18.156;2023-09-18T11:52:29;100617.13;;;27.91;46.07
76553;BME280;65395;53.168;18.156;2023-09-18T11:54:58;100615.45;;;27.96;45.25
76553;BME280;65395;53.168;18.156;2023-09-18T11:57:25;100615.52;;;27.97;45.03
76553;BME280;65395;53.168;18.156;2023-09-18T11:59:55;100615.70;;;28.04;45.34
76553;BME280;65395;53.168;18.156;2023-09-18T12:02:29;100611.73;;;28.14;45.07
76553;BME280;65395;53.168;18.156;2023-09-18T12:05:13;100608.80;;;28.26;44.97
76553;BME280;65395;53.168;18.156;2023-09-18T12:07:44;100606.73;;;28.37;43.60
76553;BME280;65395;53.168;18.156;2023-09-18T12:10:14;100599.55;;;28.47;43.21
76553;BME280;65395;53.168;18.156;2023-09-18T12:12:43;100596.32;;;28.58;42.85
76553;BME280;65395;53.168;18.156;2023-09-18T12:15:11;100600.67;;;28.70;42.46
76553;BME280;65395;53.168;18.156;2023-09-18T12:17:39;100598.13;;;28.80;41.78
76553;BME280;65395;53.168;18.156;2023-09-18T12:20:06;100594.85;;;28.91;41.61
76553;BME280;65395;53.168;18.156;2023-09-18T12:22:33;100600.32;;;29.04;41.12
76553;BME280;65395;53.168;18.156;2023-09-18T12:25:13;100597.13;;;29.16;40.60
76553;BME280;65395;53.168;18.156;2023-09-18T12:27:41;100601.20;;;29.29;39.54
76553;BME280;65395;53.168;18.156;2023-09-18T12:30:09;100599.02;;;29.38;39.40
76553;BME280;65395;53.168;18.156;2023-09-18T12:32:37;100594.00;;;29.47;39.35
76553;BME280;65395;53.168;18.156;2023-09-18T12:35:06;100593.42;;;29.53;39.27
76553;BME280;65395;53.168;18.156;2023-09-18T12:37:35;100585.45;;;29.61;39.50
76553;BME280;65395;53.168;18.156;2023-09-18T12:40:06;100580.99;;;29.71;39.23
76553;BME280;65395;53.168;18.156;2023-09-18T12:42:38;100584.86;;;29.86;39.29
76553;BME280;65395;53.168;18.156;2023-09-18T12:45:07;100580.08;;;30.00;39.24
76553;BME280;65395;53.168;18.156;2023-09-18T12:47:35;100578.37;;;30.12;38.58
76553;BME280;65395;53.168;18.156;2023-09-18T12:50:06;100568.73;;;30.15;37.99
76553;BME280;65395;53.168;18.156;2023-09-18T12:52:34;100569.11;;;30.20;38.49